Time,TemperatureF,DewpointF,PressureIn,WindDirection,WindDirectionDegrees,WindSpeedMPH,WindSpeedGustMPH,Humidity,HourlyPrecipIn,Conditions,Clouds,dailyrainin,SolarRadiationWatts/m^2,SoftwareType,DateUTC
2013-10-03 00:00:00,68.0,66.2,30.02,NNE,16,0.0,0.0,94,0.00,FEW,,0.00,0.0,WeatherDisplay:10.37,2013-10-03 04:00:00,
2013-10-03 00:01:00,68.0,66.2,30.02,NNE,16,0.0,0.0,94,0.00,FEW,,0.00,0.0,WeatherDisplay:10.37,2013-10-03 04:01:00,
2013-10-03 00:02:00,68.0,66.2,30.02,NNE,16,0.0,0.0,94,0.00,FEW,,0.00,0.0,WeatherDisplay:10.37,2013-10-03 04:02:00,
2013-10-03 00:03:00,67.9,66.1,30.02,NNE,16,0.0,0.0,94,0.00,FEW,,0.00,0.0,WeatherDisplay:10.37,2013-10-03 04:03:00,
2013-10-03 00:08:00,67.8,66.0,30.02,NNE,16,0.0,0.0,94,0.00,FEW,,0.00,0.0,WeatherDisplay:10.37,2013-10-03 04:08:00,
2013-10-03 00:13:00,67.8,66.0,30.02,NNE,16,0.0,0.0,94,0.00,FEW,,0.00,0.0,WeatherDisplay:10.37,2013-10-03 04:13:00,
2013-10-03 00:18:00,67.9,66.1,30.02,NNE,16,0.0,0.0,94,0.00,FEW,,0.00,0.0,WeatherDisplay:10.37,2013-10-03 04:18:00,
2013-10-03 00:23:00,67.9,66.1,30.02,NNE,16,0.0,0.0,94,0.00,FEW,,0.00,0.0,WeatherDisplay:10.37,2013-10-03 04:23:00,
2013-10-03 00:28:00,67.8,66.0,30.02,NNE,16,0.0,0.0,94,0.00,FEW,,0.00,0.0,WeatherDisplay:10.37,2013-10-03 04:28:00,
2013-10-03 00:33:00,67.7,65.9,30.02,NNE,16,0.0,0.0,94,0.00,FEW,,0.00,0.0,WeatherDisplay:10.37,2013-10-03 04:33:00,
2013-10-03 00:38:00,67.7,65.9,30.02,NNE,16,0.0,0.0,94,0.00,FEW,,0.00,0.0,WeatherDisplay:10.37,2013-10-03 04:38:00,
2013-10-03 00:43:00,67.9,66.1,30.02,NNE,16,0.0,0.0,94,0.00,FEW,,0.00,0.0,WeatherDisplay:10.37,2013-10-03 04:43:00,
2013-10-03 00:48:00,67.8,66.0,30.02,NNE,16,0.0,0.0,94,0.00,FEW,,0.00,0.0,WeatherDisplay:10.37,2013-10-03 04:48:00,
2013-10-03 00:53:00,67.8,66.0,30.02,NNE,16,0.0,0.0,94,0.00,FEW,,0.00,0.0,WeatherDisplay:10.37,2013-10-03 04:53:00,
2013-10-03 00:58:00,67.7,65.9,30.02,NNE,16,0.0,0.0,94,0.00,FEW,,0.00,0.0,WeatherDisplay:10.37,2013-10-03 04:58:00,
2013-10-03 01:03:00,67.6,65.8,30.01,NNE,16,0.0,0.0,94,0.00,SCT,,0.00,0.0,WeatherDisplay:10.37,2013-10-03 05:03:00,
2013-10-03 01:08:00,67.6,65.8,30.01,NNE,16,0.0,0.0,94,0.00,SCT,,0.00,0.0,WeatherDisplay:10.37,2013-10-03 05:08:00,
2013-10-03 01:13:00,67.5,65.7,30.01,NNE,16,0.0,0.0,94,0.00,SCT,,0.00,0.0,WeatherDisplay:10.37,2013-10-03 05:13:00,
2013-10-03 01:18:00,67.4,65.9,30.01,NNE,16,0.0,0.0,95,0.00,SCT,,0.00,0.0,WeatherDisplay:10.37,2013-10-03 05:18:00,
2013-10-03 01:23:00,67.3,65.5,30.01,NNE,16,0.0,0.0,94,0.00,SCT,,0.00,0.0,WeatherDisplay:10.37,2013-10-03 05:23:00,
2013-10-03 01:28:00,67.4,65.9,30.01,NNE,16,0.0,0.0,95,0.00,SCT,,0.00,0.0,WeatherDisplay:10.37,2013-10-03 05:28:00,
2013-10-03 01:33:00,67.5,66.0,30.01,NNE,16,0.0,0.0,95,0.00,SCT,,0.00,0.0,WeatherDisplay:10.37,2013-10-03 05:33:00,
2013-10-03 01:38:00,67.4,65.6,30.01,NNE,16,0.0,0.0,94,0.00,SCT,,0.00,0.0,WeatherDisplay:10.37,2013-10-03 05:38:00,
2013-10-03 01:43:00,67.6,66.1,30.01,NNE,16,0.0,0.0,95,0.00,SCT,,0.00,0.0,WeatherDisplay:10.37,2013-10-03 05:43:00,
2013-10-03 01:48:00,67.6,66.1,30.01,NNE,16,0.0,0.0,95,0.00,SCT,,0.00,0.0,WeatherDisplay:10.37,2013-10-03 05:48:00,
2013-10-03 01:53:00,67.5,66.0,30.01,NNE,16,0.0,0.0,95,0.00,SCT,,0.00,0.0,WeatherDisplay:10.37,2013-10-03 05:53:00,
2013-10-03 01:58:00,67.6,66.1,30.01,NNE,16,0.0,0.0,95,0.00,SCT,,0.00,0.0,WeatherDisplay:10.37,2013-10-03 05:58:00,
2013-10-03 02:03:00,67.6,66.1,30.01,NNE,16,0.0,0.0,95,0.00,SCT,,0.00,0.0,WeatherDisplay:10.37,2013-10-03 06:03:00,
2013-10-03 02:08:00,67.6,66.1,30.01,NNE,16,0.0,0.0,95,0.00,SCT,,0.00,0.0,WeatherDisplay:10.37,2013-10-03 06:08:00,
2013-10-03 02:13:00,67.6,66.1,30.01,NNE,16,0.0,0.0,95,0.00,SCT,,0.00,0.0,WeatherDisplay:10.37,2013-10-03 06:13:00,
2013-10-03 02:18:00,67.7,66.2,30.01,NNE,16,0.0,0.0,95,0.00,SCT,,0.00,0.0,WeatherDisplay:10.37,2013-10-03 06:18:00,
2013-10-03 02:23:00,67.7,66.2,30.01,NNE,16,0.0,0.0,95,0.00,SCT,,0.00,0.0,WeatherDisplay:10.37,2013-10-03 06:23:00,
2013-10-03 02:28:00,67.7,66.2,30.01,NNE,16,0.0,0.0,95,0.00,SCT,,0.00,0.0,WeatherDisplay:10.37,2013-10-03 06:28:00,
2013-10-03 02:33:00,67.5,66.0,30.00,NNE,16,0.0,0.0,95,0.00,SCT,,0.00,0.0,WeatherDisplay:10.37,2013-10-03 06:33:00,
2013-10-03 02:38:00,67.6,66.1,30.00,NNE,16,0.0,0.0,95,0.00,SCT,,0.00,0.0,WeatherDisplay:10.37,2013-10-03 06:38:00,
2013-10-03 02:43:00,67.8,66.3,30.00,NNE,16,0.0,0.0,95,0.00,SCT,,0.00,0.0,WeatherDisplay:10.37,2013-10-03 06:43:00,
2013-10-03 02:48:00,67.8,66.3,30.00,NNE,16,0.0,0.0,95,0.00,SCT,,0.00,0.0,WeatherDisplay:10.37,2013-10-03 06:48:00,
2013-10-03 02:53:00,67.7,66.2,30.00,NNE,16,0.0,0.0,95,0.00,SCT,,0.00,0.0,WeatherDisplay:10.37,2013-10-03 06:53:00,
2013-10-03 02:58:00,67.5,66.0,30.00,NNE,16,0.0,0.0,95,0.00,SCT,,0.00,0.0,WeatherDisplay:10.37,2013-10-03 06:58:00,
2013-10-03 03:03:00,67.5,66.0,29.99,NNE,16,0.0,0.0,95,0.00,SCT,,0.00,0.0,WeatherDisplay:10.37,2013-10-03 07:03:00,
2013-10-03 03:08:00,67.4,65.9,29.99,NNE,16,0.0,0.0,95,0.00,SCT,,0.00,0.0,WeatherDisplay:10.37,2013-10-03 07:08:00,
2013-10-03 03:13:00,67.3,65.8,29.99,NNE,16,0.0,0.0,95,0.00,SCT,,0.00,0.0,WeatherDisplay:10.37,2013-10-03 07:13:00,
2013-10-03 03:18:00,67.2,65.7,29.99,NNE,16,0.0,0.0,95,0.00,SCT,,0.00,0.0,WeatherDisplay:10.37,2013-10-03 07:18:00,
2013-10-03 03:23:00,67.2,65.7,29.99,NNE,16,0.0,0.0,95,0.00,SCT,,0.00,0.0,WeatherDisplay:10.37,2013-10-03 07:23:00,
2013-10-03 03:28:00,67.2,65.7,29.99,NNE,16,0.0,0.0,95,0.00,SCT,,0.00,0.0,WeatherDisplay:10.37,2013-10-03 07:28:00,
2013-10-03 03:33:00,67.1,65.6,29.99,NNE,16,0.0,0.0,95,0.00,SCT,,0.00,0.0,WeatherDisplay:10.37,2013-10-03 07:33:00,
2013-10-03 03:38:00,67.0,65.5,29.99,NNE,16,0.0,0.0,95,0.00,SCT,,0.00,0.0,WeatherDisplay:10.37,2013-10-03 07:38:00,
2013-10-03 03:43:00,67.0,65.5,29.99,NNE,16,0.0,0.0,95,0.00,SCT,,0.00,0.0,WeatherDisplay:10.37,2013-10-03 07:43:00,
2013-10-03 03:48:00,67.4,65.9,29.98,NNE,16,0.0,0.0,95,0.00,SCT,,0.00,0.0,WeatherDisplay:10.37,2013-10-03 07:48:00,
2013-10-03 03:53:00,67.6,66.4,29.98,NNE,16,0.0,0.0,96,0.00,SCT,,0.00,0.0,WeatherDisplay:10.37,2013-10-03 07:53:00,
2013-10-03 03:58:00,67.4,65.9,29.98,NNE,16,0.0,0.0,95,0.00,SCT,,0.00,0.0,WeatherDisplay:10.37,2013-10-03 07:58:00,
2013-10-03 04:03:00,67.2,65.7,29.98,NNE,16,0.0,0.0,95,0.00,SCT,,0.00,0.0,WeatherDisplay:10.37,2013-10-03 08:03:00,
2013-10-03 04:09:00,67.3,65.8,29.98,NNE,16,0.0,0.0,95,0.00,SCT,,0.00,0.0,WeatherDisplay:10.37,2013-10-03 08:09:00,
2013-10-03 04:14:00,67.2,65.7,29.98,NNE,16,0.0,0.0,95,0.00,SCT,,0.00,0.0,WeatherDisplay:10.37,2013-10-03 08:14:00,
2013-10-03 04:19:00,67.2,65.7,29.98,NNE,16,0.0,0.0,95,0.00,SCT,,0.00,0.0,WeatherDisplay:10.37,2013-10-03 08:19:00,
2013-10-03 04:24:00,67.3,65.8,29.98,NNE,16,0.0,0.0,95,0.00,SCT,,0.00,0.0,WeatherDisplay:10.37,2013-10-03 08:24:00,
2013-10-03 04:29:00,67.1,65.6,29.98,NNE,16,0.0,0.0,95,0.00,SCT,,0.00,0.0,WeatherDisplay:10.37,2013-10-03 08:29:00,
2013-10-03 04:36:00,67.4,66.2,29.98,NNE,16,0.0,0.0,96,0.00,SCT,,0.00,0.0,WeatherDisplay:10.37,2013-10-03 08:36:00,
2013-10-03 04:41:00,67.4,65.9,29.98,NNE,16,0.0,0.0,95,0.00,SCT,,0.00,0.0,WeatherDisplay:10.37,2013-10-03 08:41:00,
2013-10-03 04:46:00,67.4,65.9,29.98,NNE,16,0.0,0.0,95,0.00,SCT,,0.00,0.0,WeatherDisplay:10.37,2013-10-03 08:46:00,
2013-10-03 04:51:00,67.4,65.9,29.98,NNE,16,0.0,0.0,95,0.00,SCT,,0.00,0.0,WeatherDisplay:10.37,2013-10-03 08:51:00,
2013-10-03 04:56:00,67.4,65.9,29.98,NNE,16,0.0,0.0,95,0.00,SCT,,0.00,0.0,WeatherDisplay:10.37,2013-10-03 08:56:00,
2013-10-03 05:01:00,67.2,65.7,29.98,NNE,16,0.0,0.0,95,0.00,FEW,,0.00,0.0,WeatherDisplay:10.37,2013-10-03 09:01:00,
2013-10-03 05:06:00,67.2,66.0,29.98,NNE,16,0.0,0.0,96,0.00,FEW,,0.00,0.0,WeatherDisplay:10.37,2013-10-03 09:06:00,
2013-10-03 05:11:00,67.2,66.0,29.98,NNE,16,0.0,0.0,96,0.00,FEW,,0.00,0.0,WeatherDisplay:10.37,2013-10-03 09:11:00,
2013-10-03 05:16:00,67.0,65.8,29.97,NNE,16,0.0,0.0,96,0.00,FEW,,0.00,0.0,WeatherDisplay:10.37,2013-10-03 09:16:00,
2013-10-03 05:21:00,67.1,65.9,29.97,NNE,16,0.0,0.0,96,0.00,FEW,,0.00,0.0,WeatherDisplay:10.37,2013-10-03 09:21:00,
2013-10-03 05:27:00,67.2,66.0,29.97,NNE,16,0.0,0.0,96,0.00,FEW,,0.00,0.0,WeatherDisplay:10.37,2013-10-03 09:27:00,
2013-10-03 05:32:00,67.2,66.0,29.98,NNE,16,0.0,0.0,96,0.00,FEW,,0.00,0.0,WeatherDisplay:10.37,2013-10-03 09:32:00,
2013-10-03 05:37:00,67.1,65.9,29.98,NNE,16,0.0,0.0,96,0.00,FEW,,0.00,0.0,WeatherDisplay:10.37,2013-10-03 09:37:00,
2013-10-03 05:42:00,67.2,66.0,29.98,NNE,16,0.0,0.0,96,0.00,FEW,,0.00,0.0,WeatherDisplay:10.37,2013-10-03 09:42:00,
2013-10-03 05:47:00,67.1,65.9,29.98,NNE,16,0.0,0.0,96,0.00,FEW,,0.00,0.0,WeatherDisplay:10.37,2013-10-03 09:47:00,
2013-10-03 05:52:00,67.0,65.8,29.98,NNE,16,0.0,0.0,96,0.00,FEW,,0.00,0.0,WeatherDisplay:10.37,2013-10-03 09:52:00,
2013-10-03 05:57:00,66.8,65.6,29.98,NNE,16,0.0,0.0,96,0.00,FEW,,0.00,0.0,WeatherDisplay:10.37,2013-10-03 09:57:00,
2013-10-03 06:02:00,67.1,65.9,29.98,NNE,16,0.0,0.0,96,0.00,BKN,,0.00,0.0,WeatherDisplay:10.37,2013-10-03 10:02:00,
2013-10-03 06:07:00,67.3,66.1,29.98,NNE,16,0.0,0.0,96,0.00,BKN,,0.00,0.0,WeatherDisplay:10.37,2013-10-03 10:07:00,
2013-10-03 06:12:00,67.2,66.0,29.98,NNE,16,0.0,0.0,96,0.00,BKN,,0.00,0.0,WeatherDisplay:10.37,2013-10-03 10:12:00,
2013-10-03 06:17:00,67.2,66.0,29.98,NNE,16,0.0,0.0,96,0.00,BKN,,0.00,0.0,WeatherDisplay:10.37,2013-10-03 10:17:00,
2013-10-03 06:22:00,67.1,65.9,29.98,NNE,16,0.0,0.0,96,0.00,BKN,,0.00,0.0,WeatherDisplay:10.37,2013-10-03 10:22:00,
2013-10-03 06:27:00,66.9,65.7,29.98,NNE,16,0.0,0.0,96,0.00,BKN,,0.00,0.0,WeatherDisplay:10.37,2013-10-03 10:27:00,
2013-10-03 06:32:00,66.8,65.6,29.97,NNE,16,0.0,0.0,96,0.00,BKN,,0.00,0.0,WeatherDisplay:10.37,2013-10-03 10:32:00,
2013-10-03 06:37:00,66.8,65.6,29.97,NNE,16,0.0,0.0,96,0.00,BKN,,0.00,0.0,WeatherDisplay:10.37,2013-10-03 10:37:00,
2013-10-03 06:42:00,67.1,65.9,29.97,NNE,16,0.0,0.0,96,0.00,BKN,,0.00,0.0,WeatherDisplay:10.37,2013-10-03 10:42:00,
2013-10-03 06:47:00,67.6,66.4,29.98,NNE,16,0.0,0.0,96,0.00,BKN,,0.00,0.0,WeatherDisplay:10.37,2013-10-03 10:47:00,
2013-10-03 06:52:00,67.6,66.4,29.98,NNE,16,0.0,0.0,96,0.00,BKN,,0.00,0.0,WeatherDisplay:10.37,2013-10-03 10:52:00,
2013-10-03 06:57:00,67.4,66.2,29.98,NNE,16,1.2,1.2,96,0.00,BKN,,0.00,0.0,WeatherDisplay:10.37,2013-10-03 10:57:00,
2013-10-03 07:02:00,67.2,66.0,29.98,NNE,16,1.2,1.2,96,0.00,BKN,,0.00,0.0,WeatherDisplay:10.37,2013-10-03 11:02:00,
2013-10-03 07:07:00,67.2,66.0,29.98,NNE,16,0.0,0.0,96,0.00,BKN,,0.00,0.0,WeatherDisplay:10.37,2013-10-03 11:07:00,
2013-10-03 07:12:00,67.2,66.0,29.98,NNE,16,1.2,1.2,96,0.00,BKN,,0.00,5.0,WeatherDisplay:10.37,2013-10-03 11:12:00,
2013-10-03 07:17:00,67.6,66.4,29.98,NNE,16,1.2,1.2,96,0.00,BKN,,0.00,7.0,WeatherDisplay:10.37,2013-10-03 11:17:00,
2013-10-03 07:22:00,68.3,67.1,29.98,NNE,16,0.0,0.0,96,0.00,BKN,,0.00,0.0,WeatherDisplay:10.37,2013-10-03 11:22:00,
2013-10-03 07:27:00,68.7,67.5,29.98,NNE,16,0.0,0.0,96,0.00,BKN,,0.00,5.0,WeatherDisplay:10.37,2013-10-03 11:27:00,
2013-10-03 07:32:00,68.8,67.6,29.98,NNE,16,0.0,0.0,96,0.00,BKN,,0.00,14.0,WeatherDisplay:10.37,2013-10-03 11:32:00,
2013-10-03 07:37:00,69.0,67.8,29.98,NNE,16,0.0,0.0,96,0.00,BKN,,0.00,21.0,WeatherDisplay:10.37,2013-10-03 11:37:00,
2013-10-03 07:42:00,69.1,67.9,29.98,NNE,16,0.0,0.0,96,0.00,BKN,,0.00,28.0,WeatherDisplay:10.37,2013-10-03 11:42:00,
2013-10-03 07:47:00,69.2,68.0,29.99,NNE,16,1.2,1.2,96,0.00,BKN,,0.00,39.0,WeatherDisplay:10.37,2013-10-03 11:47:00,
2013-10-03 07:52:00,69.4,68.2,29.99,NNE,16,0.0,0.0,96,0.00,BKN,,0.00,46.0,WeatherDisplay:10.37,2013-10-03 11:52:00,
2013-10-03 07:57:00,69.6,68.4,29.99,NNE,16,0.0,0.0,96,0.00,BKN,,0.00,53.0,WeatherDisplay:10.37,2013-10-03 11:57:00,
2013-10-03 08:02:00,69.9,69.0,29.99,NNE,16,0.0,0.0,97,0.00,BKN,,0.00,56.0,WeatherDisplay:10.37,2013-10-03 12:02:00,
2013-10-03 08:07:00,70.1,68.9,29.99,NNE,16,2.3,2.3,96,0.00,BKN,,0.00,81.0,WeatherDisplay:10.37,2013-10-03 12:07:00,
2013-10-03 08:12:00,70.5,69.6,29.99,NNE,16,0.0,0.0,97,0.00,BKN,,0.00,100.0,WeatherDisplay:10.37,2013-10-03 12:12:00,
2013-10-03 08:17:00,71.0,70.1,30.00,NNE,16,0.0,0.0,97,0.00,BKN,,0.00,213.0,WeatherDisplay:10.37,2013-10-03 12:17:00,
2013-10-03 08:22:00,71.6,70.7,30.00,NNE,16,2.3,2.3,97,0.00,BKN,,0.00,234.0,WeatherDisplay:10.37,2013-10-03 12:22:00,
2013-10-03 08:27:00,72.1,71.2,30.00,NNE,16,1.4,1.4,97,0.00,BKN,,0.00,197.0,WeatherDisplay:10.37,2013-10-03 12:27:00,
2013-10-03 08:32:00,72.3,71.4,30.00,NNE,15,4.6,4.6,97,0.00,BKN,,0.00,244.0,WeatherDisplay:10.37,2013-10-03 12:32:00,
2013-10-03 08:37:00,72.6,71.4,30.00,NNE,15,4.6,4.6,96,0.00,BKN,,0.00,100.0,WeatherDisplay:10.37,2013-10-03 12:37:00,
2013-10-03 08:42:00,72.7,71.5,30.00,NNE,15,2.3,2.3,96,0.00,BKN,,0.00,155.0,WeatherDisplay:10.37,2013-10-03 12:42:00,
2013-10-03 08:47:00,73.0,71.8,30.01,NNE,15,2.3,2.3,96,0.00,BKN,,0.00,244.0,WeatherDisplay:10.37,2013-10-03 12:47:00,
2013-10-03 08:52:00,73.4,72.2,30.01,NNE,15,9.2,9.2,96,0.00,BKN,,0.00,213.0,WeatherDisplay:10.37,2013-10-03 12:52:00,
2013-10-03 08:57:00,73.9,72.7,30.01,NNE,15,1.2,1.2,96,0.00,BKN,,0.00,272.0,WeatherDisplay:10.37,2013-10-03 12:57:00,
2013-10-03 09:02:00,74.6,73.1,30.01,NNE,15,4.6,4.6,95,0.00,BKN,,0.00,248.0,WeatherDisplay:10.37,2013-10-03 13:02:00,
2013-10-03 09:07:00,75.2,73.7,30.01,NNE,16,4.6,0.0,95,0.00,BKN,,0.00,281.0,WeatherDisplay:10.37,2013-10-03 13:07:00,
2013-10-03 09:12:00,75.8,73.9,30.01,NNE,16,2.7,2.7,94,0.00,BKN,,0.00,211.0,WeatherDisplay:10.37,2013-10-03 13:12:00,
2013-10-03 09:17:00,75.9,73.7,30.01,NNE,15,8.1,8.1,93,0.00,BKN,,0.00,227.0,WeatherDisplay:10.37,2013-10-03 13:17:00,
2013-10-03 09:22:00,76.3,74.1,30.01,NNE,14,4.6,4.6,93,0.00,BKN,,0.00,352.0,WeatherDisplay:10.37,2013-10-03 13:22:00,
2013-10-03 09:27:00,77.1,74.6,30.01,NNE,15,4.1,4.1,92,0.00,BKN,,0.00,322.0,WeatherDisplay:10.37,2013-10-03 13:27:00,
2013-10-03 09:32:00,77.9,74.7,30.02,NNE,16,2.3,2.3,90,0.00,BKN,,0.00,396.0,WeatherDisplay:10.37,2013-10-03 13:32:00,
2013-10-03 09:37:00,78.6,75.1,30.02,NNE,18,5.8,5.8,89,0.00,BKN,,0.00,457.0,WeatherDisplay:10.37,2013-10-03 13:37:00,
2013-10-03 09:42:00,79.3,74.7,30.02,NNE,19,11.5,11.5,86,0.00,BKN,,0.00,359.0,WeatherDisplay:10.37,2013-10-03 13:42:00,
2013-10-03 09:47:00,79.4,74.5,30.02,NNE,19,9.2,9.2,85,0.00,BKN,,0.00,323.0,WeatherDisplay:10.37,2013-10-03 13:47:00,
2013-10-03 09:52:00,79.8,74.5,30.02,NNE,17,4.6,4.6,84,0.00,BKN,,0.00,570.0,WeatherDisplay:10.37,2013-10-03 13:52:00,
2013-10-03 09:57:00,80.7,75.1,30.02,NNE,14,8.1,8.5,83,0.00,BKN,,0.00,598.0,WeatherDisplay:10.37,2013-10-03 13:57:00,
2013-10-03 10:02:00,81.3,75.3,30.02,NNE,14,6.9,6.9,82,0.00,BKN,,0.00,608.0,WeatherDisplay:10.37,2013-10-03 14:02:00,
2013-10-03 10:07:00,81.9,75.5,30.02,NNE,13,5.8,5.8,81,0.00,BKN,,0.00,628.0,WeatherDisplay:10.37,2013-10-03 14:07:00,
2013-10-03 10:12:00,82.8,76.0,30.02,NNE,22,9.2,9.2,80,0.00,BKN,,0.00,633.0,WeatherDisplay:10.37,2013-10-03 14:12:00,
2013-10-03 10:17:00,83.1,75.5,30.03,NNE,22,5.8,5.8,78,0.00,BKN,,0.00,527.0,WeatherDisplay:10.37,2013-10-03 14:17:00,
2013-10-03 10:22:00,83.1,75.5,30.03,NNE,19,1.4,1.4,78,0.00,BKN,,0.00,698.0,WeatherDisplay:10.37,2013-10-03 14:22:00,
2013-10-03 10:27:00,83.6,75.6,30.03,NNE,23,4.6,4.6,77,0.00,BKN,,0.00,251.0,WeatherDisplay:10.37,2013-10-03 14:27:00,
2013-10-03 10:32:00,82.9,74.9,30.03,NNE,19,6.9,6.9,77,0.00,BKN,,0.00,817.0,WeatherDisplay:10.37,2013-10-03 14:32:00,
2013-10-03 10:37:00,83.5,75.5,30.03,NNE,24,5.5,5.5,77,0.00,BKN,,0.00,777.0,WeatherDisplay:10.37,2013-10-03 14:37:00,
2013-10-03 10:42:00,84.6,75.4,30.03,NNE,24,8.1,8.1,74,0.00,BKN,,0.00,816.0,WeatherDisplay:10.37,2013-10-03 14:42:00,
2013-10-03 10:47:00,85.0,75.8,30.04,NNE,20,5.8,5.8,74,0.00,BKN,,0.00,849.0,WeatherDisplay:10.37,2013-10-03 14:47:00,
2013-10-03 10:52:00,84.6,75.0,30.04,NNE,21,8.2,8.3,73,0.00,BKN,,0.00,276.0,WeatherDisplay:10.37,2013-10-03 14:52:00,
2013-10-03 10:57:00,83.5,74.3,30.04,NNE,13,5.8,5.8,74,0.00,BKN,,0.00,271.0,WeatherDisplay:10.37,2013-10-03 14:57:00,
2013-10-03 11:02:00,82.9,74.9,30.04,NNE,19,2.3,2.3,77,0.00,BKN,,0.00,550.0,WeatherDisplay:10.37,2013-10-03 15:02:00,
2013-10-03 11:07:00,83.4,75.4,30.04,North,360,5.8,5.8,77,0.00,BKN,,0.00,353.0,WeatherDisplay:10.37,2013-10-03 15:07:00,
2013-10-03 11:12:00,85.1,75.9,30.04,NNE,17,4.6,4.6,74,0.00,BKN,,0.00,454.0,WeatherDisplay:10.37,2013-10-03 15:12:00,
2013-10-03 11:18:00,85.4,74.1,30.04,NNE,20,8.1,8.1,69,0.00,BKN,,0.00,406.0,WeatherDisplay:10.37,2013-10-03 15:18:00,
2013-10-03 11:23:00,85.7,74.8,30.04,NNE,18,8.1,8.1,70,0.00,BKN,,0.00,234.0,WeatherDisplay:10.37,2013-10-03 15:23:00,
2013-10-03 11:28:00,84.6,74.6,30.04,NNE,21,9.6,9.6,72,0.00,BKN,,0.00,225.0,WeatherDisplay:10.37,2013-10-03 15:28:00,
2013-10-03 11:33:00,84.5,75.3,30.04,NNE,13,4.6,4.6,74,0.00,BKN,,0.00,911.0,WeatherDisplay:10.37,2013-10-03 15:33:00,
2013-10-03 11:38:00,85.6,75.1,30.04,NNE,15,5.8,6.9,71,0.00,BKN,,0.00,949.0,WeatherDisplay:10.37,2013-10-03 15:38:00,
2013-10-03 11:43:00,87.0,76.9,30.04,NNE,17,8.1,8.5,72,0.00,BKN,,0.00,995.0,WeatherDisplay:10.37,2013-10-03 15:43:00,
2013-10-03 11:48:00,87.4,75.5,30.04,NNE,13,9.2,9.2,68,0.00,BKN,,0.00,406.0,WeatherDisplay:10.37,2013-10-03 15:48:00,
2013-10-03 11:53:00,86.3,74.9,30.04,NNE,19,2.3,2.3,69,0.00,BKN,,0.00,302.0,WeatherDisplay:10.37,2013-10-03 15:53:00,
2013-10-03 11:58:00,85.6,74.7,30.04,NNE,21,12.7,12.7,70,0.00,BKN,,0.00,236.0,WeatherDisplay:10.37,2013-10-03 15:58:00,
2013-10-03 12:03:00,84.4,74.4,30.04,NNE,20,6.9,6.9,72,0.00,BKN,,0.00,285.0,WeatherDisplay:10.37,2013-10-03 16:03:00,
2013-10-03 12:08:00,83.8,74.2,30.04,NNE,19,4.6,4.6,73,0.00,BKN,,0.00,274.0,WeatherDisplay:10.37,2013-10-03 16:08:00,
2013-10-03 12:13:00,84.3,75.1,30.04,NNE,22,9.2,9.2,74,0.00,BKN,,0.00,1049.0,WeatherDisplay:10.37,2013-10-03 16:13:00,
2013-10-03 12:18:00,86.1,75.6,30.04,NNE,18,5.8,5.8,71,0.00,BKN,,0.00,1095.0,WeatherDisplay:10.37,2013-10-03 16:18:00,
2013-10-03 12:23:00,87.1,75.3,30.04,NNE,19,8.1,8.1,68,0.00,BKN,,0.00,1056.0,WeatherDisplay:10.37,2013-10-03 16:23:00,
2013-10-03 12:28:00,88.7,76.8,30.04,NNE,22,8.1,8.1,68,0.00,BKN,,0.00,1004.0,WeatherDisplay:10.37,2013-10-03 16:28:00,
2013-10-03 12:33:00,88.6,74.9,30.04,NNE,17,9.2,9.2,64,0.00,BKN,,0.00,1076.0,WeatherDisplay:10.37,2013-10-03 16:33:00,
2013-10-03 12:38:00,88.8,76.0,30.04,NNE,18,11.5,11.5,66,0.00,BKN,,0.00,1083.0,WeatherDisplay:10.37,2013-10-03 16:38:00,
2013-10-03 12:43:00,88.8,75.5,30.04,NNE,20,11.5,11.5,65,0.00,BKN,,0.00,287.0,WeatherDisplay:10.37,2013-10-03 16:43:00,
2013-10-03 12:48:00,86.8,73.6,30.03,NNE,23,8.1,8.1,65,0.00,BKN,,0.00,271.0,WeatherDisplay:10.37,2013-10-03 16:48:00,
2013-10-03 12:53:00,85.6,74.3,30.03,NNE,22,5.5,5.5,69,0.00,BKN,,0.00,334.0,WeatherDisplay:10.37,2013-10-03 16:53:00,
2013-10-03 12:58:00,85.6,74.7,30.03,NNE,16,11.5,11.5,70,0.00,BKN,,0.00,912.0,WeatherDisplay:10.37,2013-10-03 16:58:00,
2013-10-03 13:03:00,86.5,75.1,30.03,NNE,21,9.2,9.2,69,0.00,BKN,,0.00,392.0,WeatherDisplay:10.37,2013-10-03 17:03:00,
2013-10-03 13:08:00,86.3,74.9,30.03,NNE,20,12.7,12.7,69,0.00,BKN,,0.00,439.0,WeatherDisplay:10.37,2013-10-03 17:08:00,
2013-10-03 13:13:00,85.6,74.7,30.03,NNE,19,9.2,9.2,70,0.00,BKN,,0.00,239.0,WeatherDisplay:10.37,2013-10-03 17:13:00,
2013-10-03 13:18:00,84.8,73.9,30.02,NNE,15,8.1,8.1,70,0.00,BKN,,0.00,243.0,WeatherDisplay:10.37,2013-10-03 17:18:00,
2013-10-03 13:23:00,84.6,74.6,30.02,NNE,20,4.6,4.6,72,0.00,BKN,,0.00,1069.0,WeatherDisplay:10.37,2013-10-03 17:23:00,
2013-10-03 13:28:00,86.8,75.0,30.02,NNE,23,9.2,9.2,68,0.00,BKN,,0.00,1107.0,WeatherDisplay:10.37,2013-10-03 17:28:00,
2013-10-03 13:33:00,88.3,75.9,30.01,NNE,16,8.1,8.1,67,0.00,BKN,,0.00,1148.0,WeatherDisplay:10.37,2013-10-03 17:33:00,
2013-10-03 13:38:00,87.5,74.7,30.01,NNE,19,13.8,13.8,66,0.00,BKN,,0.00,357.0,WeatherDisplay:10.37,2013-10-03 17:38:00,
2013-10-03 13:43:00,86.3,74.5,30.01,NNE,19,6.9,6.9,68,0.00,BKN,,0.00,563.0,WeatherDisplay:10.37,2013-10-03 17:43:00,
2013-10-03 13:48:00,86.9,75.1,30.01,NNE,21,5.5,5.5,68,0.00,BKN,,0.00,294.0,WeatherDisplay:10.37,2013-10-03 17:48:00,
2013-10-03 13:53:00,86.2,74.4,30.01,NNE,18,6.9,6.9,68,0.00,BKN,,0.00,508.0,WeatherDisplay:10.37,2013-10-03 17:53:00,
2013-10-03 13:58:00,86.1,74.7,30.01,NNE,16,8.1,8.1,69,0.00,BKN,,0.00,661.0,WeatherDisplay:10.37,2013-10-03 17:58:00,
2013-10-03 14:03:00,86.9,75.1,30.00,NNE,16,9.2,9.2,68,0.00,BKN,,0.00,766.0,WeatherDisplay:10.37,2013-10-03 18:03:00,
2013-10-03 14:08:00,87.3,75.9,30.00,NNE,15,18.4,18.4,69,0.00,BKN,,0.00,1051.0,WeatherDisplay:10.37,2013-10-03 18:08:00,
2013-10-03 14:13:00,87.6,75.7,30.00,NNE,24,12.7,12.7,68,0.00,BKN,,0.00,1021.0,WeatherDisplay:10.37,2013-10-03 18:13:00,
2013-10-03 14:18:00,87.9,75.1,30.00,NNE,19,13.8,14.2,66,0.00,BKN,,0.00,817.0,WeatherDisplay:10.37,2013-10-03 18:18:00,
2013-10-03 14:23:00,87.7,75.4,30.00,NNE,16,9.2,9.3,67,0.00,BKN,,0.00,976.0,WeatherDisplay:10.37,2013-10-03 18:23:00,
2013-10-03 14:28:00,88.3,75.0,30.00,NNE,22,8.1,8.1,65,0.00,BKN,,0.00,969.0,WeatherDisplay:10.37,2013-10-03 18:28:00,
2013-10-03 14:33:00,88.3,75.5,29.99,NNE,16,9.6,9.6,66,0.00,BKN,,0.00,745.0,WeatherDisplay:10.37,2013-10-03 18:33:00,
2013-10-03 14:38:00,87.2,74.9,29.99,North,360,6.9,6.9,67,0.00,BKN,,0.00,1062.0,WeatherDisplay:10.37,2013-10-03 18:38:00,
2013-10-03 14:43:00,87.1,74.8,29.99,NNE,18,9.2,9.2,67,0.00,BKN,,0.00,297.0,WeatherDisplay:10.37,2013-10-03 18:43:00,
2013-10-03 14:48:00,87.7,75.8,29.99,NNE,17,8.2,8.2,68,0.00,BKN,,0.00,1005.0,WeatherDisplay:10.37,2013-10-03 18:48:00,
2013-10-03 14:53:00,87.6,75.3,29.99,NNE,20,12.7,12.7,67,0.00,BKN,,0.00,315.0,WeatherDisplay:10.37,2013-10-03 18:53:00,
2013-10-03 14:58:00,87.9,74.7,29.99,NNE,26,11.5,11.5,65,0.00,BKN,,0.00,749.0,WeatherDisplay:10.37,2013-10-03 18:58:00,
2013-10-03 15:03:00,89.2,75.0,29.98,NNE,22,11.5,11.5,63,0.00,BKN,,0.00,550.0,WeatherDisplay:10.37,2013-10-03 19:03:00,
2013-10-03 15:08:00,88.3,74.6,29.98,NNE,21,9.2,9.3,64,0.00,BKN,,0.00,550.0,WeatherDisplay:10.37,2013-10-03 19:08:00,
2013-10-03 15:13:00,88.9,75.6,29.98,NNE,23,9.2,9.2,65,0.00,BKN,,0.00,958.0,WeatherDisplay:10.37,2013-10-03 19:13:00,
2013-10-03 15:18:00,88.0,74.3,29.98,NNE,20,8.1,8.1,64,0.00,BKN,,0.00,188.0,WeatherDisplay:10.37,2013-10-03 19:18:00,
2013-10-03 15:23:00,86.6,74.3,29.98,NNE,17,9.2,9.2,67,0.00,BKN,,0.00,174.0,WeatherDisplay:10.37,2013-10-03 19:23:00,
2013-10-03 15:28:00,87.3,75.0,29.98,NNE,21,8.1,8.1,67,0.00,BKN,,0.00,916.0,WeatherDisplay:10.37,2013-10-03 19:28:00,
2013-10-03 15:33:00,87.6,74.8,29.98,NNE,16,6.9,6.9,66,0.00,BKN,,0.00,837.0,WeatherDisplay:10.37,2013-10-03 19:33:00,
2013-10-03 15:38:00,88.2,75.9,29.98,NNE,15,5.8,5.8,67,0.00,BKN,,0.00,759.0,WeatherDisplay:10.37,2013-10-03 19:38:00,
2013-10-03 15:43:00,88.0,75.2,29.98,NNE,17,15.0,15.0,66,0.00,BKN,,0.00,209.0,WeatherDisplay:10.37,2013-10-03 19:43:00,
2013-10-03 15:48:00,86.8,75.0,29.98,NNE,15,5.8,5.8,68,0.00,BKN,,0.00,185.0,WeatherDisplay:10.37,2013-10-03 19:48:00,
2013-10-03 15:53:00,85.7,74.8,29.98,NNE,18,11.5,11.5,70,0.00,BKN,,0.00,206.0,WeatherDisplay:10.37,2013-10-03 19:53:00,
2013-10-03 15:58:00,84.8,74.3,29.98,NNE,17,6.9,6.9,71,0.00,BKN,,0.00,236.0,WeatherDisplay:10.37,2013-10-03 19:58:00,
2013-10-03 16:03:00,84.7,75.1,29.97,NNE,24,2.7,4.8,73,0.00,BKN,,0.00,139.0,WeatherDisplay:10.37,2013-10-03 20:03:00,
2013-10-03 16:08:00,84.0,74.0,29.97,NNE,16,12.7,12.7,72,0.00,BKN,,0.00,167.0,WeatherDisplay:10.37,2013-10-03 20:08:00,
2013-10-03 16:13:00,84.1,74.5,29.97,NNE,13,11.5,11.5,73,0.00,BKN,,0.00,264.0,WeatherDisplay:10.37,2013-10-03 20:13:00,
2013-10-03 16:18:00,84.3,74.3,29.97,NNE,19,6.9,6.9,72,0.00,BKN,,0.00,209.0,WeatherDisplay:10.37,2013-10-03 20:18:00,
2013-10-03 16:23:00,84.2,74.2,29.97,NNE,22,6.9,6.9,72,0.00,BKN,,0.00,149.0,WeatherDisplay:10.37,2013-10-03 20:23:00,
2013-10-03 16:29:00,84.3,74.3,29.97,NNE,22,8.2,8.2,72,0.00,BKN,,0.00,172.0,WeatherDisplay:10.37,2013-10-03 20:29:00,
2013-10-03 16:34:00,84.1,74.1,29.97,NNE,22,8.1,8.1,72,0.00,BKN,,0.00,172.0,WeatherDisplay:10.37,2013-10-03 20:34:00,
2013-10-03 16:39:00,84.4,74.8,29.97,NNE,21,5.8,6.0,73,0.00,BKN,,0.00,290.0,WeatherDisplay:10.37,2013-10-03 20:39:00,
2013-10-03 16:44:00,84.1,74.5,29.97,NNE,19,6.9,6.9,73,0.00,BKN,,0.00,156.0,WeatherDisplay:10.37,2013-10-03 20:44:00,
2013-10-03 16:49:00,83.6,74.0,29.97,NNE,15,6.9,6.9,73,0.00,BKN,,0.00,193.0,WeatherDisplay:10.37,2013-10-03 20:49:00,
2013-10-03 16:54:00,83.2,73.6,29.97,NNE,24,8.1,8.1,73,0.00,BKN,,0.00,144.0,WeatherDisplay:10.37,2013-10-03 20:54:00,
2013-10-03 16:59:00,83.1,73.9,29.97,NNE,19,9.2,9.2,74,0.00,BKN,,0.00,165.0,WeatherDisplay:10.37,2013-10-03 20:59:00,
2013-10-03 17:04:00,83.0,74.3,29.96,NNE,18,4.6,4.6,75,0.00,BKN,,0.00,158.0,WeatherDisplay:10.37,2013-10-03 21:04:00,
2013-10-03 17:09:00,82.9,74.2,29.96,NNE,17,8.1,8.1,75,0.00,BKN,,0.00,134.0,WeatherDisplay:10.37,2013-10-03 21:09:00,
2013-10-03 17:14:00,82.7,74.4,29.96,NNE,17,8.1,8.1,76,0.00,BKN,,0.00,169.0,WeatherDisplay:10.37,2013-10-03 21:14:00,
2013-10-03 17:19:00,82.6,74.3,29.97,NNE,16,12.7,12.7,76,0.00,BKN,,0.00,213.0,WeatherDisplay:10.37,2013-10-03 21:19:00,
2013-10-03 17:24:00,82.2,73.9,29.97,NNE,19,5.8,5.8,76,0.00,BKN,,0.00,107.0,WeatherDisplay:10.37,2013-10-03 21:24:00,
2013-10-03 17:29:00,82.3,74.0,29.97,NNE,18,1.2,1.2,76,0.00,BKN,,0.00,135.0,WeatherDisplay:10.37,2013-10-03 21:29:00,
2013-10-03 17:34:00,82.4,74.5,29.97,NNE,15,6.9,6.9,77,0.00,BKN,,0.00,151.0,WeatherDisplay:10.37,2013-10-03 21:34:00,
2013-10-03 17:39:00,82.4,74.1,29.97,NNE,20,9.2,9.2,76,0.00,BKN,,0.00,207.0,WeatherDisplay:10.37,2013-10-03 21:39:00,
2013-10-03 17:44:00,82.2,73.9,29.97,NNE,20,8.1,8.1,76,0.00,BKN,,0.00,114.0,WeatherDisplay:10.37,2013-10-03 21:44:00,
2013-10-03 17:49:00,82.1,74.2,29.97,NNE,17,9.2,9.2,77,0.00,BKN,,0.00,120.0,WeatherDisplay:10.37,2013-10-03 21:49:00,
2013-10-03 17:54:00,82.0,74.1,29.97,NNE,16,6.9,6.9,77,0.00,BKN,,0.00,84.0,WeatherDisplay:10.37,2013-10-03 21:54:00,
2013-10-03 17:59:00,81.8,73.9,29.97,NNE,17,9.2,9.2,77,0.00,BKN,,0.00,90.0,WeatherDisplay:10.37,2013-10-03 21:59:00,
2013-10-03 18:04:00,81.6,74.1,29.97,NNE,22,1.4,0.0,78,0.00,BKN,,0.00,76.0,WeatherDisplay:10.37,2013-10-03 22:04:00,
2013-10-03 18:09:00,81.3,73.8,29.97,NNE,15,5.8,5.8,78,0.00,BKN,,0.00,65.0,WeatherDisplay:10.37,2013-10-03 22:09:00,
2013-10-03 18:14:00,81.1,74.0,29.97,NNE,15,4.6,4.6,79,0.00,BKN,,0.00,58.0,WeatherDisplay:10.37,2013-10-03 22:14:00,
2013-10-03 18:19:00,80.8,74.0,29.97,NNE,19,6.9,6.9,80,0.00,BKN,,0.00,58.0,WeatherDisplay:10.37,2013-10-03 22:19:00,
2013-10-03 18:24:00,80.7,74.0,29.97,NNE,17,4.6,4.6,80,0.00,BKN,,0.00,49.0,WeatherDisplay:10.37,2013-10-03 22:24:00,
2013-10-03 18:29:00,80.4,73.7,29.98,NNE,19,8.1,8.1,80,0.00,BKN,,0.00,42.0,WeatherDisplay:10.37,2013-10-03 22:29:00,
2013-10-03 18:34:00,80.2,73.8,29.98,NNE,20,6.9,6.9,81,0.00,BKN,,0.00,37.0,WeatherDisplay:10.37,2013-10-03 22:34:00,
2013-10-03 18:39:00,79.9,73.5,29.98,NNE,17,6.9,6.9,81,0.00,BKN,,0.00,32.0,WeatherDisplay:10.37,2013-10-03 22:39:00,
2013-10-03 18:44:00,79.7,73.7,29.98,NNE,16,4.6,4.6,82,0.00,BKN,,0.00,26.0,WeatherDisplay:10.37,2013-10-03 22:44:00,
2013-10-03 18:49:00,79.6,73.6,29.98,NNE,22,2.3,2.3,82,0.00,BKN,,0.00,21.0,WeatherDisplay:10.37,2013-10-03 22:49:00,
2013-10-03 18:54:00,79.4,73.8,29.98,NNE,20,6.9,6.9,83,0.00,BKN,,0.00,16.0,WeatherDisplay:10.37,2013-10-03 22:54:00,
2013-10-03 18:59:00,79.2,73.6,29.98,NNE,20,1.4,1.4,83,0.00,BKN,,0.00,11.0,WeatherDisplay:10.37,2013-10-03 22:59:00,
2013-10-03 19:04:00,79.0,73.7,29.98,NNE,19,5.8,5.8,84,0.00,BKN,,0.00,5.0,WeatherDisplay:10.37,2013-10-03 23:04:00,
2013-10-03 19:09:00,78.8,73.6,29.98,NNE,19,2.7,2.7,84,0.00,BKN,,0.00,0.0,WeatherDisplay:10.37,2013-10-03 23:09:00,
2013-10-03 19:14:00,78.7,73.5,29.98,NNE,19,2.7,2.7,84,0.00,BKN,,0.00,0.0,WeatherDisplay:10.37,2013-10-03 23:14:00,
2013-10-03 19:19:00,78.5,73.6,29.98,NNE,19,0.0,0.0,85,0.00,BKN,,0.00,0.0,WeatherDisplay:10.37,2013-10-03 23:19:00,
2013-10-03 19:24:00,78.3,73.4,29.98,NNE,19,0.0,0.0,85,0.00,BKN,,0.00,0.0,WeatherDisplay:10.37,2013-10-03 23:24:00,
2013-10-03 19:29:00,78.1,73.6,29.98,NNE,19,1.2,0.0,86,0.00,BKN,,0.00,0.0,WeatherDisplay:10.37,2013-10-03 23:29:00,
2013-10-03 19:34:00,77.9,73.4,29.98,NNE,19,0.0,0.6,86,0.00,BKN,,0.00,0.0,WeatherDisplay:10.37,2013-10-03 23:34:00,
2013-10-03 19:39:00,77.8,73.3,29.98,NNE,19,1.2,0.0,86,0.00,BKN,,0.00,0.0,WeatherDisplay:10.37,2013-10-03 23:39:00,
2013-10-03 19:44:00,77.7,73.5,29.98,NNE,19,1.2,1.2,87,0.00,BKN,,0.00,0.0,WeatherDisplay:10.37,2013-10-03 23:44:00,
2013-10-03 19:49:00,77.6,73.4,29.98,NNE,19,2.3,2.3,87,0.00,BKN,,0.00,0.0,WeatherDisplay:10.37,2013-10-03 23:49:00,
2013-10-03 19:54:00,77.4,73.2,29.98,NNE,19,0.0,0.0,87,0.00,BKN,,0.00,0.0,WeatherDisplay:10.37,2013-10-03 23:54:00,
2013-10-03 19:59:00,77.3,73.5,29.99,NNE,19,4.6,4.6,88,0.00,BKN,,0.00,0.0,WeatherDisplay:10.37,2013-10-03 23:59:00,
2013-10-03 20:04:00,77.2,73.4,29.99,NNE,19,1.2,0.0,88,0.00,BKN,,0.00,0.0,WeatherDisplay:10.37,2013-10-04 00:04:00,
2013-10-03 20:09:00,77.1,73.3,29.99,NNE,19,0.0,0.0,88,0.00,BKN,,0.00,0.0,WeatherDisplay:10.37,2013-10-04 00:09:00,
2013-10-03 20:14:00,77.0,73.2,29.99,NNE,19,1.2,1.2,88,0.00,BKN,,0.00,0.0,WeatherDisplay:10.37,2013-10-04 00:14:00,
2013-10-03 20:19:00,76.9,73.4,29.99,NNE,19,0.0,0.2,89,0.00,BKN,,0.00,0.0,WeatherDisplay:10.37,2013-10-04 00:19:00,
2013-10-03 20:24:00,76.9,73.4,29.99,NNE,19,0.0,0.0,89,0.00,BKN,,0.00,0.0,WeatherDisplay:10.37,2013-10-04 00:24:00,
2013-10-03 20:29:00,76.8,73.3,30.00,NNE,19,0.0,0.0,89,0.00,BKN,,0.00,0.0,WeatherDisplay:10.37,2013-10-04 00:29:00,
2013-10-03 20:34:00,76.7,73.2,30.00,NNE,19,0.0,0.0,89,0.00,BKN,,0.00,0.0,WeatherDisplay:10.37,2013-10-04 00:34:00,
2013-10-03 20:39:00,76.5,73.0,30.00,NNE,19,0.0,0.0,89,0.00,BKN,,0.00,0.0,WeatherDisplay:10.37,2013-10-04 00:39:00,
2013-10-03 20:44:00,76.4,73.2,30.01,NNE,19,0.0,0.0,90,0.00,BKN,,0.00,0.0,WeatherDisplay:10.37,2013-10-04 00:44:00,
2013-10-03 20:49:00,76.3,73.1,30.01,NNE,19,0.0,0.0,90,0.00,BKN,,0.00,0.0,WeatherDisplay:10.37,2013-10-04 00:49:00,
2013-10-03 20:54:00,76.0,72.9,30.01,NNE,19,0.0,0.0,90,0.00,BKN,,0.00,0.0,WeatherDisplay:10.37,2013-10-04 00:54:00,
2013-10-03 20:59:00,76.0,72.9,30.01,NNE,19,0.0,0.0,90,0.00,BKN,,0.00,0.0,WeatherDisplay:10.37,2013-10-04 00:59:00,
2013-10-03 21:04:00,75.9,72.8,30.01,NNE,19,0.0,0.0,90,0.00,BKN,,0.00,0.0,WeatherDisplay:10.37,2013-10-04 01:04:00,
2013-10-03 21:09:00,75.8,73.0,30.01,NNE,19,0.0,0.0,91,0.00,BKN,,0.00,0.0,WeatherDisplay:10.37,2013-10-04 01:09:00,
2013-10-03 21:14:00,75.6,72.8,30.01,NNE,19,0.0,0.0,91,0.00,BKN,,0.00,0.0,WeatherDisplay:10.37,2013-10-04 01:14:00,
2013-10-03 21:19:00,75.4,72.6,30.01,NNE,19,0.0,0.0,91,0.00,BKN,,0.00,0.0,WeatherDisplay:10.37,2013-10-04 01:19:00,
2013-10-03 21:24:00,75.4,72.6,30.01,NNE,19,0.0,0.0,91,0.00,BKN,,0.00,0.0,WeatherDisplay:10.37,2013-10-04 01:24:00,
2013-10-03 21:29:00,75.4,72.9,30.01,NNE,19,0.0,0.0,92,0.00,BKN,,0.00,0.0,WeatherDisplay:10.37,2013-10-04 01:29:00,
2013-10-03 21:34:00,75.5,73.0,30.01,NNE,19,0.0,0.0,92,0.00,BKN,,0.00,0.0,WeatherDisplay:10.37,2013-10-04 01:34:00,
2013-10-03 21:39:00,75.3,72.8,30.01,NNE,19,0.0,0.0,92,0.00,BKN,,0.00,0.0,WeatherDisplay:10.37,2013-10-04 01:39:00,
2013-10-03 21:44:00,75.2,72.7,30.01,NNE,19,0.0,0.0,92,0.00,BKN,,0.00,0.0,WeatherDisplay:10.37,2013-10-04 01:44:00,
2013-10-03 21:49:00,75.1,72.6,30.01,NNE,19,0.0,0.0,92,0.00,BKN,,0.00,0.0,WeatherDisplay:10.37,2013-10-04 01:49:00,
2013-10-03 21:54:00,74.9,72.4,30.01,NNE,19,0.0,0.0,92,0.00,BKN,,0.00,0.0,WeatherDisplay:10.37,2013-10-04 01:54:00,
2013-10-03 21:59:00,74.7,72.2,30.02,NNE,19,0.0,0.0,92,0.00,BKN,,0.00,0.0,WeatherDisplay:10.37,2013-10-04 01:59:00,
2013-10-03 22:04:00,74.7,72.2,30.02,NNE,19,0.0,0.0,92,0.00,BKN,,0.00,0.0,WeatherDisplay:10.37,2013-10-04 02:04:00,
2013-10-03 22:09:00,74.5,72.0,30.02,NNE,19,0.0,0.0,92,0.00,BKN,,0.00,0.0,WeatherDisplay:10.37,2013-10-04 02:09:00,
2013-10-03 22:14:00,74.4,72.2,30.02,NNE,19,0.0,0.0,93,0.00,BKN,,0.00,0.0,WeatherDisplay:10.37,2013-10-04 02:14:00,
2013-10-03 22:20:00,74.3,72.1,30.02,NNE,19,0.0,0.0,93,0.00,BKN,,0.00,0.0,WeatherDisplay:10.37,2013-10-04 02:20:00,
2013-10-03 22:25:00,74.0,71.8,30.02,NNE,19,0.0,0.0,93,0.00,BKN,,0.00,0.0,WeatherDisplay:10.37,2013-10-04 02:25:00,
2013-10-03 22:30:00,74.0,71.8,30.02,NNE,19,0.0,0.0,93,0.00,BKN,,0.00,0.0,WeatherDisplay:10.37,2013-10-04 02:30:00,
2013-10-03 22:35:00,73.9,71.8,30.02,NNE,19,0.0,0.0,93,0.00,BKN,,0.00,0.0,WeatherDisplay:10.37,2013-10-04 02:35:00,
2013-10-03 22:40:00,73.9,71.7,30.02,NNE,19,0.0,0.0,93,0.00,BKN,,0.00,0.0,WeatherDisplay:10.37,2013-10-04 02:40:00,
2013-10-03 22:45:00,73.7,71.5,30.02,NNE,19,0.0,0.0,93,0.00,BKN,,0.00,0.0,WeatherDisplay:10.37,2013-10-04 02:45:00,
2013-10-03 22:50:00,73.7,71.9,30.02,NNE,19,0.0,0.0,94,0.00,BKN,,0.00,0.0,WeatherDisplay:10.37,2013-10-04 02:50:00,
2013-10-03 22:55:00,73.7,71.9,30.02,NNE,19,0.0,0.0,94,0.00,BKN,,0.00,0.0,WeatherDisplay:10.37,2013-10-04 02:55:00,
2013-10-03 23:00:00,73.7,71.9,30.02,NNE,19,0.0,0.0,94,0.00,BKN,,0.00,0.0,WeatherDisplay:10.37,2013-10-04 03:00:00,
2013-10-03 23:05:00,73.9,72.1,30.02,NNE,19,0.0,0.0,94,0.00,BKN,,0.00,0.0,WeatherDisplay:10.37,2013-10-04 03:05:00,
2013-10-03 23:10:00,73.6,71.8,30.02,NNE,19,0.0,0.0,94,0.00,BKN,,0.00,0.0,WeatherDisplay:10.37,2013-10-04 03:10:00,
2013-10-03 23:15:00,73.6,71.8,30.02,NNE,19,0.0,0.0,94,0.00,BKN,,0.00,0.0,WeatherDisplay:10.37,2013-10-04 03:15:00,
2013-10-03 23:20:00,73.3,71.5,30.02,NNE,19,0.0,0.0,94,0.00,BKN,,0.00,0.0,WeatherDisplay:10.37,2013-10-04 03:20:00,
2013-10-03 23:25:00,73.4,71.6,30.02,NNE,19,0.0,0.0,94,0.00,BKN,,0.00,0.0,WeatherDisplay:10.37,2013-10-04 03:25:00,
2013-10-03 23:30:00,73.5,71.7,30.01,NNE,19,0.0,0.0,94,0.00,BKN,,0.00,0.0,WeatherDisplay:10.37,2013-10-04 03:30:00,
2013-10-03 23:35:00,73.3,71.5,30.01,NNE,19,0.0,0.0,94,0.00,BKN,,0.00,0.0,WeatherDisplay:10.37,2013-10-04 03:35:00,
2013-10-03 23:40:00,73.3,71.5,30.01,NNE,19,0.0,0.0,94,0.00,BKN,,0.00,0.0,WeatherDisplay:10.37,2013-10-04 03:40:00,
2013-10-03 23:45:00,73.3,71.5,30.01,NNE,19,0.0,0.0,94,0.00,BKN,,0.00,0.0,WeatherDisplay:10.37,2013-10-04 03:45:00,
2013-10-03 23:50:00,73.1,71.3,30.01,NNE,19,0.0,0.0,94,0.00,BKN,,0.00,0.0,WeatherDisplay:10.37,2013-10-04 03:50:00,
2013-10-03 23:55:00,73.0,71.2,30.01,NNE,19,0.0,0.0,94,0.00,BKN,,0.00,0.0,WeatherDisplay:10.37,2013-10-04 03:55:00,